Time;durP1;ratioP1;P1;durP2;ratioP2;P2;SDS_P1;SDS_P2;PMS_P1;PMS_P2;Temp;Humidity;BMP_temperature;BMP_pressure;BME280_temperature;BME280_humidity;BME280_pressure;Samples;Min_cycle;Max_cycle;Signal;HPM_P1;HPM_P2
2022/02/24 00:02:07;;;;;;;4.45;2.60;;;10.20;91.90;;;;;;5068963;28;20044;-61
2022/02/24 00:04:32;;;;;;;8.65;3.53;;;10.20;91.90;;;;;;5082034;28;20059;-61
2022/02/24 00:06:59;;;;;;;5.22;2.83;;;10.20;91.90;;;;;;5080538;28;20492;-63
2022/02/24 00:09:25;;;;;;;7.15;2.97;;;10.30;91.90;;;;;;5076696;28;20052;-63
2022/02/24 00:11:50;;;;;;;10.65;3.30;;;10.20;91.90;;;;;;5078430;28;20097;-61
2022/02/24 00:14:16;;;;;;;5.72;2.90;;;10.20;91.90;;;;;;5065291;28;20031;-61
2022/02/24 00:16:42;;;;;;;5.63;2.92;;;10.20;91.90;;;;;;5083584;28;20031;-61
2022/02/24 00:19:07;;;;;;;7.25;2.80;;;10.20;91.90;;;;;;5063011;28;20027;-61
2022/02/24 00:21:33;;;;;;;8.73;2.70;;;10.20;91.90;;;;;;5086392;28;20034;-62
2022/02/24 00:23:58;;;;;;;11.93;3.15;;;10.20;92.20;;;;;;5066831;28;20424;-61
2022/02/24 00:26:24;;;;;;;8.68;3.33;;;10.20;91.90;;;;;;5058705;28;20028;-62
2022/02/24 00:28:50;;;;;;;3.40;2.42;;;10.20;91.90;;;;;;5079770;28;20473;-61
2022/02/24 00:31:15;;;;;;;5.25;2.55;;;10.20;91.90;;;;;;5060116;28;20033;-61
2022/02/24 00:33:41;;;;;;;5.22;2.97;;;10.20;91.90;;;;;;5082610;28;20074;-61
2022/02/24 00:36:07;;;;;;;4.72;2.55;;;10.20;91.90;;;;;;5077555;28;20081;-62
2022/02/24 00:38:34;;;;;;;8.20;2.90;;;10.20;91.90;;;;;;5072874;28;20031;-61
2022/02/24 00:41:00;;;;;;;8.25;3.05;;;10.20;91.90;;;;;;5085722;28;20476;-62
2022/02/24 00:43:26;;;;;;;10.25;2.72;;;10.20;91.90;;;;;;5066381;28;20133;-62
2022/02/24 00:45:52;;;;;;;4.85;2.15;;;10.20;91.80;;;;;;5063846;28;20548;-61
2022/02/24 00:48:17;;;;;;;8.23;2.78;;;10.20;91.80;;;;;;5073918;28;20472;-61
2022/02/24 00:50:44;;;;;;;5.93;2.42;;;10.20;91.80;;;;;;5077703;28;20127;-61
2022/02/24 00:55:37;;;;;;;7.55;2.17;;;10.20;91.80;;;;;;5077737;22;20095;-66
2022/02/24 00:58:03;;;;;;;3.85;2.30;;;10.20;91.80;;;;;;5049006;28;20029;-66
2022/02/24 01:00:28;;;;;;;4.97;2.85;;;10.10;91.80;;;;;;5040044;28;20017;-67
2022/02/24 01:02:54;;;;;;;7.22;2.95;;;10.10;91.80;;;;;;5065114;28;20025;-66
2022/02/24 01:05:20;;;;;;;6.10;2.60;;;10.10;91.80;;;;;;5063286;28;20028;-66
2022/02/24 01:07:45;;;;;;;8.30;3.00;;;10.10;91.80;;;;;;5032876;28;20025;-66
2022/02/24 01:10:11;;;;;;;9.65;3.10;;;10.10;91.70;;;;;;5032653;28;20025;-66
2022/02/24 01:12:37;;;;;;;8.48;3.58;;;10.20;91.70;;;;;;5051730;28;20028;-66
2022/02/24 01:15:08;;;;;;;5.32;2.65;;;10.20;91.70;;;;;;5062448;28;20385;-66
2022/02/24 01:17:35;;;;;;;8.63;3.08;;;10.10;91.80;;;;;;5037881;28;20367;-66
2022/02/24 01:20:00;;;;;;;4.78;2.88;;;10.20;91.80;;;;;;5054153;28;20071;-66
2022/02/24 01:22:26;;;;;;;6.95;3.00;;;10.10;91.70;;;;;;5033638;28;20025;-67
2022/02/24 01:24:52;;;;;;;6.30;2.58;;;10.20;91.70;;;;;;5044026;28;20017;-66
2022/02/24 01:27:18;;;;;;;8.52;2.65;;;10.10;91.70;;;;;;5071554;28;20428;-66
2022/02/24 01:29:44;;;;;;;9.75;2.33;;;10.10;91.70;;;;;;5054513;28;20059;-66
2022/02/24 01:32:10;;;;;;;6.82;2.15;;;10.10;91.70;;;;;;5054721;28;20426;-66
2022/02/24 01:34:36;;;;;;;12.65;2.63;;;10.10;91.60;;;;;;5048586;28;20092;-66
2022/02/24 01:37:02;;;;;;;10.25;2.75;;;10.10;91.70;;;;;;5034191;28;20124;-66
2022/02/24 01:39:27;;;;;;;4.93;2.63;;;10.10;91.70;;;;;;5034509;28;20381;-66
2022/02/24 01:41:55;;;;;;;3.53;2.10;;;10.10;92.00;;;;;;5069483;28;20159;-68
2022/02/24 01:44:22;;;;;;;4.25;2.65;;;10.10;91.70;;;;;;5053346;28;20025;-68
2022/02/24 01:46:47;;;;;;;5.00;2.08;;;10.10;91.60;;;;;;5052833;28;20293;-68
2022/02/24 01:49:13;;;;;;;6.22;2.42;;;10.10;91.60;;;;;;5052989;28;20029;-68
2022/02/24 01:51:42;;;;;;;4.63;2.22;;;10.10;91.70;;;;;;5052020;28;20056;-68
2022/02/24 01:54:08;;;;;;;6.55;3.10;;;10.10;91.70;;;;;;5035341;28;20424;-68
2022/02/24 01:56:34;;;;;;;5.75;2.72;;;10.10;91.60;;;;;;5070303;28;20103;-68
2022/02/24 01:59:00;;;;;;;8.05;2.97;;;10.10;91.70;;;;;;5053328;28;20025;-69
2022/02/24 02:01:29;;;;;;;10.07;2.38;;;10.10;91.70;;;;;;5053747;28;20028;-68
2022/02/24 02:03:55;;;;;;;9.30;2.78;;;10.10;91.60;;;;;;5070117;28;20461;-68
2022/02/24 02:06:23;;;;;;;4.38;2.30;;;10.10;91.60;;;;;;5057431;28;20027;-68
2022/02/24 02:08:52;;;;;;;7.63;2.58;;;10.00;91.60;;;;;;5054191;28;20196;-68
2022/02/24 02:11:18;;;;;;;5.97;1.88;;;10.10;91.60;;;;;;5051982;28;20017;-69
2022/02/24 02:13:44;;;;;;;7.85;2.13;;;10.10;91.60;;;;;;5045235;28;20058;-68
2022/02/24 02:16:15;;;;;;;6.63;2.15;;;10.10;91.60;;;;;;5053598;28;20131;-69
2022/02/24 02:18:41;;;;;;;13.50;3.20;;;10.00;91.50;;;;;;5053158;28;20021;-68
2022/02/24 02:21:08;;;;;;;4.30;2.13;;;10.10;91.60;;;;;;5054472;28;20388;-68
2022/02/24 02:23:34;;;;;;;5.70;2.47;;;10.10;91.60;;;;;;5054086;28;20028;-68
2022/02/24 02:25:59;;;;;;;10.02;2.22;;;10.00;91.60;;;;;;5051521;28;20366;-68
2022/02/24 02:28:25;;;;;;;4.53;2.40;;;10.10;91.60;;;;;;5054445;28;20059;-68
2022/02/24 02:30:51;;;;;;;11.60;2.55;;;10.00;91.50;;;;;;5054969;28;20032;-68
2022/02/24 02:33:17;;;;;;;3.53;2.30;;;10.00;91.50;;;;;;5055087;28;20138;-68
2022/02/24 02:35:42;;;;;;;5.53;2.35;;;10.00;91.50;;;;;;5048433;28;20024;-68
2022/02/24 02:38:10;;;;;;;7.70;2.42;;;10.00;91.50;;;;;;5054437;28;20099;-68
2022/02/24 02:40:38;;;;;;;4.28;2.33;;;10.00;91.50;;;;;;5045419;28;20461;-68
2022/02/24 02:43:07;;;;;;;7.13;2.55;;;10.00;91.50;;;;;;5054241;28;20040;-68
2022/02/24 02:45:32;;;;;;;9.90;2.63;;;10.00;91.50;;;;;;5059730;28;20109;-68
2022/02/24 02:48:00;;;;;;;2.60;2.10;;;10.00;91.50;;;;;;5035337;28;20100;-68
2022/02/24 03:00:24;;;;;;;3.97;2.25;;;10.00;91.50;;;;;;5010002;28;20378;-68
2022/02/24 03:03:33;;;;;;;6.93;2.10;;;10.00;91.50;;;;;;4993711;28;20034;-68
2022/02/24 03:06:06;;;;;;;5.93;2.20;;;10.00;91.50;;;;;;5009066;28;20026;-68
2022/02/24 03:15:44;;;;;;;3.22;1.95;;;9.90;91.40;;;;;;5002392;28;20659;-68
2022/02/24 03:18:10;;;;;;;4.32;1.85;;;10.00;91.50;;;;;;4992215;28;20398;-68
2022/02/24 03:20:36;;;;;;;5.35;2.30;;;10.00;91.50;;;;;;5008566;28;20022;-68
2022/02/24 03:23:08;;;;;;;8.55;1.85;;;10.00;91.40;;;;;;4992222;28;20510;-68
2022/02/24 03:25:34;;;;;;;5.13;2.58;;;10.00;91.40;;;;;;5008643;28;20418;-68
2022/02/24 03:28:00;;;;;;;4.22;2.22;;;9.90;91.40;;;;;;5011499;28;20065;-68
2022/02/24 03:30:27;;;;;;;8.60;2.53;;;9.90;91.40;;;;;;5019547;28;20069;-68
2022/02/24 03:36:39;;;;;;;5.53;2.72;;;10.00;91.40;;;;;;5030575;28;20045;-68
2022/02/24 05:09:39;;;;;;;6.38;1.88;;;9.80;91.20;;;;;;5050036;28;20033;-69
2022/02/24 05:22:19;;;;;;;6.15;2.13;;;9.80;91.10;;;;;;4987608;28;20038;-68
2022/02/24 06:15:37;;;;;;;3.50;2.25;;;9.80;91.00;;;;;;4915988;29;20563;-67
2022/02/24 06:35:12;;;;;;;2.30;1.63;;;9.80;91.00;;;;;;4937001;28;20032;-67
2022/02/24 06:43:53;;;;;;;5.47;2.35;;;9.80;89.40;;;;;;4921200;29;20544;-64
2022/02/24 06:46:18;;;;;;;11.20;2.80;;;9.70;88.30;;;;;;4932195;29;20401;-64
2022/02/24 06:48:45;;;;;;;11.73;3.10;;;9.70;88.10;;;;;;4916457;29;20059;-64
2022/02/24 06:51:11;;;;;;;5.88;2.75;;;9.70;87.70;;;;;;4935881;29;20058;-64
2022/02/24 06:53:37;;;;;;;8.52;3.03;;;9.60;86.90;;;;;;4935262;29;20027;-64
2022/02/24 06:56:03;;;;;;;9.60;1.90;;;9.60;86.80;;;;;;4934769;29;20070;-64
2022/02/24 06:58:29;;;;;;;12.75;3.08;;;9.60;86.40;;;;;;5007258;22;20048;-66
2022/02/24 07:00:58;;;;;;;3.33;2.10;;;9.50;85.00;;;;;;5028054;28;20028;-66
2022/02/24 07:03:30;;;;;;;6.88;3.60;;;9.50;85.10;;;;;;5048649;28;20090;-66
2022/02/24 07:06:02;;;;;;;6.60;3.20;;;9.50;85.00;;;;;;5055855;28;20035;-66
2022/02/24 07:08:39;;;;;;;5.70;2.30;;;9.50;84.40;;;;;;5050135;28;20029;-66
2022/02/24 07:11:05;;;;;;;;;;;9.50;83.90;;;;;;5045257;28;20055;-66
2022/02/24 07:13:31;;;;;;;4.03;2.55;;;9.50;83.30;;;;;;5053235;28;20331;-67
2022/02/24 07:16:03;;;;;;;6.85;3.28;;;9.50;83.30;;;;;;5065400;28;20505;-66
2022/02/24 07:18:29;;;;;;;7.97;2.53;;;9.40;83.30;;;;;;5038696;28;20056;-66
2022/02/24 07:20:55;;;;;;;19.90;3.53;;;9.50;83.20;;;;;;5051828;28;20053;-66
2022/02/24 07:23:24;;;;;;;7.38;2.50;;;9.40;83.80;;;;;;5060541;28;20579;-66
2022/02/24 07:25:53;;;;;;;9.20;1.88;;;9.40;83.30;;;;;;5055750;28;20024;-66
2022/02/24 07:28:20;;;;;;;6.63;2.55;;;9.40;83.00;;;;;;5034779;28;20029;-65
2022/02/24 07:30:48;;;;;;;12.27;2.85;;;9.40;83.70;;;;;;5052685;28;20382;-66
2022/02/24 07:33:15;;;;;;;16.35;3.33;;;9.40;82.50;;;;;;5058397;28;20162;-66
2022/02/24 07:35:41;;;;;;;6.07;2.75;;;9.40;83.30;;;;;;5055852;28;20036;-66
2022/02/24 07:38:07;;;;;;;4.90;3.08;;;9.40;83.10;;;;;;5037753;28;20036;-65
2022/02/24 07:40:33;;;;;;;7.20;3.03;;;9.40;82.40;;;;;;5052454;28;20414;-67
2022/02/24 07:42:58;;;;;;;6.22;3.22;;;9.50;82.50;;;;;;5042934;28;20035;-65
2022/02/24 07:45:24;;;;;;;9.38;3.88;;;9.50;83.30;;;;;;5057614;28;20035;-67
2022/02/24 07:47:50;;;;;;;8.88;2.80;;;9.50;82.50;;;;;;5030448;28;20461;-65
2022/02/24 07:50:15;;;;;;;4.68;2.90;;;9.50;82.70;;;;;;5062516;28;20429;-65
2022/02/24 07:52:43;;;;;;;6.97;3.63;;;9.50;82.60;;;;;;5055303;28;20021;-65
2022/02/24 07:55:10;;;;;;;5.60;3.10;;;9.50;82.50;;;;;;5047519;28;20029;-65
2022/02/24 07:57:38;;;;;;;9.23;2.97;;;9.50;82.80;;;;;;5031876;28;20470;-65
2022/02/24 08:00:06;;;;;;;5.32;3.03;;;9.50;82.70;;;;;;5052405;28;20047;-65
2022/02/24 08:02:33;;;;;;;7.43;4.03;;;9.50;82.80;;;;;;5059314;28;20542;-65
2022/02/24 08:04:59;;;;;;;6.60;2.85;;;9.60;82.60;;;;;;5055132;28;20403;-65
2022/02/24 08:07:24;;;;;;;6.40;3.33;;;9.60;83.80;;;;;;5043414;28;20021;-66
2022/02/24 08:09:50;;;;;;;11.07;3.15;;;9.60;84.10;;;;;;5062764;28;20476;-65
2022/02/24 08:15:00;;;;;;;8.35;3.95;;;9.60;83.10;;;;;;5049953;28;20588;-65
2022/02/24 08:17:26;;;;;;;9.95;3.30;;;9.70;83.00;;;;;;5039269;28;20044;-67
2022/02/24 08:19:51;;;;;;;5.82;3.50;;;9.70;83.30;;;;;;5062521;28;20017;-65
2022/02/24 08:22:17;;;;;;;9.48;3.58;;;9.70;83.60;;;;;;5062150;28;20100;-65
2022/02/24 08:24:43;;;;;;;9.27;4.20;;;9.70;84.40;;;;;;5062535;28;20036;-65
2022/02/24 08:27:09;;;;;;;15.10;4.25;;;9.70;84.10;;;;;;5047873;28;20366;-65
2022/02/24 08:29:34;;;;;;;7.47;3.65;;;9.70;84.10;;;;;;5055299;28;20078;-64
2022/02/24 08:32:00;;;;;;;7.38;4.20;;;9.80;84.50;;;;;;5034107;28;20464;-64
2022/02/24 08:34:26;;;;;;;9.27;3.72;;;9.70;84.10;;;;;;5057457;28;20489;-64
2022/02/24 08:36:52;;;;;;;7.50;4.30;;;9.80;84.50;;;;;;5057461;28;20036;-64
2022/02/24 08:39:21;;;;;;;9.50;4.75;;;9.80;84.60;;;;;;5061711;28;20056;-65
2022/02/24 08:41:46;;;;;;;7.95;4.90;;;9.80;84.80;;;;;;5058694;28;20500;-64
2022/02/24 08:44:13;;;;;;;14.77;5.50;;;9.80;85.10;;;;;;5056356;28;20017;-66
2022/02/24 08:46:38;;;;;;;13.40;4.07;;;9.80;85.60;;;;;;5031525;28;20020;-65
2022/02/24 08:49:05;;;;;;;15.90;4.85;;;9.80;85.40;;;;;;5061526;28;20021;-64
2022/02/24 08:51:31;;;;;;;8.43;3.80;;;9.80;85.40;;;;;;5060724;28;20035;-64
2022/02/24 08:53:57;;;;;;;15.35;5.53;;;9.90;85.50;;;;;;5052379;28;20024;-65
2022/02/24 08:56:23;;;;;;;14.07;4.32;;;9.90;85.90;;;;;;5055436;28;20413;-65
2022/02/24 08:58:48;;;;;;;13.60;5.13;;;9.90;86.90;;;;;;5031462;28;20089;-66
2022/02/24 09:01:14;;;;;;;9.02;4.85;;;10.00;85.90;;;;;;5048714;28;20029;-64
2022/02/24 09:03:40;;;;;;;16.92;5.60;;;10.00;86.30;;;;;;5031656;28;20029;-65
2022/02/24 09:06:05;;;;;;;12.15;5.88;;;10.00;86.90;;;;;;5037909;28;20021;-65
2022/02/24 09:08:31;;;;;;;9.88;5.43;;;10.00;88.80;;;;;;5039197;28;20033;-65
2022/02/24 09:10:57;;;;;;;17.27;6.50;;;10.10;87.20;;;;;;5056506;28;20457;-64
2022/02/24 09:13:22;;;;;;;13.32;6.45;;;10.10;87.40;;;;;;5053094;28;20039;-64
2022/02/24 09:15:48;;;;;;;9.00;4.57;;;10.10;87.90;;;;;;5067770;28;20031;-65
2022/02/24 09:18:16;;;;;;;7.68;3.40;;;10.20;88.10;;;;;;5051303;28;20036;-65
2022/02/24 09:20:42;;;;;;;6.82;2.92;;;10.20;88.30;;;;;;5059239;28;20087;-65
2022/02/24 09:23:09;;;;;;;7.82;4.20;;;10.20;87.90;;;;;;5057518;28;20462;-65
2022/02/24 09:25:35;;;;;;;8.32;3.35;;;10.20;88.80;;;;;;5049648;28;20028;-65
2022/02/24 09:28:01;;;;;;;10.98;2.58;;;10.20;88.40;;;;;;5035026;28;20048;-65
2022/02/24 09:30:27;;;;;;;7.03;3.17;;;10.30;88.80;;;;;;5059095;28;20362;-65
2022/02/24 09:32:55;;;;;;;8.45;4.07;;;10.30;90.00;;;;;;5068459;28;20024;-65
2022/02/24 09:35:22;;;;;;;5.00;3.08;;;10.30;88.90;;;;;;5058466;28;20032;-64
2022/02/24 09:37:48;;;;;;;21.25;4.72;;;10.30;89.40;;;;;;5060584;28;20116;-65
2022/02/24 09:40:14;;;;;;;3.67;2.90;;;10.30;89.20;;;;;;5064151;28;20025;-64
2022/02/24 09:42:42;;;;;;;4.95;2.97;;;10.30;89.20;;;;;;5051262;28;20090;-64
2022/02/24 09:45:08;;;;;;;9.20;3.17;;;10.40;90.20;;;;;;5063695;28;20432;-64
2022/02/24 09:47:37;;;;;;;7.40;3.08;;;10.40;90.40;;;;;;5060856;28;20505;-65
2022/02/24 09:50:03;;;;;;;9.57;3.70;;;10.50;90.10;;;;;;5053190;28;20032;-65
2022/02/24 09:52:29;;;;;;;13.30;4.63;;;10.40;90.20;;;;;;5061752;28;20120;-64
2022/02/24 09:54:55;;;;;;;0.38;0.38;;;10.50;90.30;;;;;;5050741;28;20132;-65
2022/02/24 09:57:21;;;;;;;6.70;3.47;;;10.50;90.30;;;;;;5062503;28;20098;-65
2022/02/24 09:59:47;;;;;;;5.85;3.20;;;10.40;90.00;;;;;;5056621;28;20040;-66
2022/02/24 10:02:15;;;;;;;3.45;1.45;;;10.40;90.30;;;;;;5058492;28;20538;-64
2022/02/24 10:05:09;;;;;;;6.20;1.30;;;10.50;90.60;;;;;;5059994;28;20032;-65
2022/02/24 10:07:40;;;;;;;0.63;0.63;;;10.60;90.50;;;;;;5062256;28;20377;-64
2022/02/24 10:10:22;;;;;;;7.72;4.45;;;10.70;90.90;;;;;;5068295;28;20021;-64
2022/02/24 10:13:09;;;;;;;1.48;1.23;;;10.80;91.00;;;;;;5059860;28;20056;-65
2022/02/24 10:15:37;;;;;;;2.20;1.10;;;10.80;90.50;;;;;;5056596;28;20039;-65
2022/02/24 10:18:18;;;;;;;1.52;1.42;;;10.80;91.00;;;;;;5034362;28;20333;-65
2022/02/24 10:20:53;;;;;;;1.08;0.98;;;10.90;91.00;;;;;;5041696;28;20033;-65
2022/02/24 10:23:20;;;;;;;2.40;2.20;;;11.00;91.20;;;;;;5047047;28;20568;-65
2022/02/24 10:25:51;;;;;;;2.28;1.08;;;11.10;91.20;;;;;;5041742;28;20078;-65
2022/02/24 10:28:35;;;;;;;11.35;3.55;;;11.10;91.30;;;;;;5060325;28;20512;-65
2022/02/24 10:31:25;;;;;;;1.70;1.50;;;11.10;91.10;;;;;;5058635;28;20028;-65
2022/02/24 10:33:53;;;;;;;3.97;2.20;;;11.10;91.00;;;;;;5063199;28;20037;-66
2022/02/24 10:36:26;;;;;;;7.18;2.75;;;11.10;91.30;;;;;;5058816;28;20033;-66
2022/02/24 10:38:59;;;;;;;8.70;3.05;;;11.10;91.30;;;;;;5051538;28;20037;-66
2022/02/24 10:41:33;;;;;;;9.38;3.97;;;11.10;91.00;;;;;;5055189;28;20551;-65
2022/02/24 10:44:17;;;;;;;1.35;0.68;;;11.10;90.90;;;;;;5041669;28;20024;-65
2022/02/24 10:47:04;;;;;;;5.43;1.42;;;11.20;91.10;;;;;;5045070;28;20025;-66
2022/02/24 10:49:39;;;;;;;2.78;2.38;;;11.30;91.40;;;;;;5044858;28;20041;-65
2022/02/24 10:52:13;;;;;;;3.42;1.80;;;11.40;91.40;;;;;;5016493;28;20030;-65
2022/02/24 10:54:41;;;;;;;6.18;2.67;;;11.60;91.20;;;;;;5067759;28;20035;-65
2022/02/24 10:57:20;;;;;;;3.20;1.38;;;11.70;90.70;;;;;;5063457;28;20032;-65
2022/02/24 10:59:49;;;;;;;3.13;2.13;;;11.70;90.80;;;;;;5026963;28;20041;-65
2022/02/24 11:02:15;;;;;;;7.10;3.38;;;11.90;90.90;;;;;;5051087;28;20111;-65
2022/02/24 11:04:42;;;;;;;5.20;2.35;;;12.00;90.60;;;;;;5053693;28;20128;-66
2022/02/24 11:07:09;;;;;;;5.22;2.92;;;12.10;90.60;;;;;;5067658;28;20028;-65
2022/02/24 11:09:37;;;;;;;3.05;2.03;;;12.10;90.10;;;;;;5050519;28;20032;-65
2022/02/24 11:12:07;;;;;;;2.05;1.45;;;12.10;90.10;;;;;;5029525;28;20350;-66
2022/02/24 11:14:39;;;;;;;5.17;2.90;;;12.20;89.80;;;;;;5054355;28;20116;-66
2022/02/24 11:17:07;;;;;;;3.40;1.77;;;12.20;89.90;;;;;;5045057;28;20283;-65
2022/02/24 11:19:36;;;;;;;4.13;1.92;;;12.30;90.20;;;;;;5033182;28;20108;-65
2022/02/24 11:22:03;;;;;;;3.35;1.58;;;12.30;90.00;;;;;;5049957;28;20021;-65
2022/02/24 11:24:28;;;;;;;5.28;2.83;;;12.40;89.60;;;;;;5058905;28;20033;-65
2022/02/24 11:27:23;;;;;;;2.90;2.13;;;12.40;89.90;;;;;;5062918;28;20029;-65
2022/02/24 11:30:12;;;;;;;3.28;2.38;;;12.40;88.60;;;;;;5015680;28;20108;-66
2022/02/24 11:32:45;;;;;;;5.03;2.42;;;12.60;89.40;;;;;;5008947;28;20596;-66
2022/02/24 11:35:13;;;;;;;4.75;2.35;;;12.60;88.50;;;;;;5020290;28;20099;-66
2022/02/24 11:37:45;;;;;;;4.50;2.45;;;12.70;88.80;;;;;;5012663;28;20124;-66
2022/02/24 11:40:25;;;;;;;10.55;2.38;;;12.60;88.40;;;;;;5014185;28;20037;-66
2022/02/24 11:43:05;;;;;;;5.35;3.08;;;12.70;88.90;;;;;;5030435;28;20104;-66
2022/02/24 11:45:38;;;;;;;1.25;0.57;;;12.70;89.00;;;;;;5034379;28;20184;-66
2022/02/24 11:48:13;;;;;;;1.73;1.60;;;12.80;88.90;;;;;;5029917;28;20046;-65
2022/02/24 11:50:45;;;;;;;2.63;1.35;;;12.80;87.90;;;;;;5032811;28;20112;-66
2022/02/24 11:53:26;;;;;;;1.08;0.93;;;12.80;88.10;;;;;;5048015;28;20129;-66
2022/02/24 11:55:58;;;;;;;;;;;12.80;88.60;;;;;;5030265;28;20025;-67
2022/02/24 11:58:30;;;;;;;0.40;0.40;;;12.90;88.20;;;;;;5031470;28;19924;-66
2022/02/24 12:01:29;;;;;;;2.13;1.50;;;12.90;87.00;;;;;;5027619;28;20033;-67
2022/02/24 12:03:59;;;;;;;1.35;1.25;;;12.80;87.90;;;;;;5009076;28;20038;-66
2022/02/24 12:06:51;;;;;;;2.65;1.52;;;12.80;87.30;;;;;;5031043;28;20075;-65
2022/02/24 12:09:22;;;;;;;2.28;0.88;;;12.80;87.70;;;;;;5035157;28;20028;-67
2022/02/24 12:11:55;;;;;;;2.95;0.60;;;12.90;87.10;;;;;;5022275;28;20060;-67
2022/02/24 12:14:24;;;;;;;0.85;0.57;;;12.90;87.90;;;;;;5052774;28;20036;-66
2022/02/24 12:17:04;;;;;;;0.35;0.35;;;12.80;87.50;;;;;;5042230;28;20052;-67
2022/02/24 12:19:42;;;;;;;;;;;12.80;88.00;;;;;;5039232;28;20035;-67
2022/02/24 12:22:11;;;;;;;2.10;1.63;;;12.80;87.30;;;;;;5039270;28;19952;-66
2022/02/24 12:24:37;;;;;;;2.38;1.27;;;12.80;87.60;;;;;;5063367;28;20032;-66
2022/02/24 12:27:43;;;;;;;1.65;0.63;;;12.90;87.80;;;;;;5035858;28;20028;-66
2022/02/24 12:30:11;;;;;;;3.58;0.60;;;12.90;86.40;;;;;;5001141;28;20026;-66
2022/02/24 12:32:43;;;;;;;0.90;0.45;;;12.90;86.60;;;;;;4992536;28;20379;-66
2022/02/24 12:35:14;;;;;;;1.05;0.65;;;13.00;86.20;;;;;;4994850;28;20042;-66
2022/02/24 12:37:40;;;;;;;;;;;13.00;86.50;;;;;;4995832;28;20392;-67
2022/02/24 12:40:07;;;;;;;0.55;0.55;;;12.90;86.50;;;;;;4996144;28;19997;-66
2022/02/24 12:42:33;;;;;;;1.85;0.90;;;12.90;86.10;;;;;;4995470;28;20030;-67
2022/02/24 12:44:59;;;;;;;3.72;1.33;;;12.90;85.10;;;;;;4999521;28;20498;-66
2022/02/24 12:47:28;;;;;;;0.98;0.40;;;13.00;84.80;;;;;;4993367;28;20098;-67
2022/02/24 12:49:56;;;;;;;1.42;0.80;;;12.90;83.70;;;;;;4999518;28;20193;-66
2022/02/24 12:52:26;;;;;;;0.88;0.82;;;12.90;86.10;;;;;;4994854;28;20063;-67
2022/02/24 12:54:51;;;;;;;1.83;1.05;;;12.80;85.70;;;;;;4993678;28;20130;-68
2022/02/24 12:57:18;;;;;;;2.00;1.10;;;12.80;85.80;;;;;;5000229;28;20144;-66
2022/02/24 12:59:44;;;;;;;1.20;0.65;;;12.80;85.80;;;;;;4996594;28;20058;-67
2022/02/24 13:02:12;;;;;;;0.98;0.70;;;12.80;85.80;;;;;;5053175;28;20109;-68
2022/02/24 13:04:39;;;;;;;0.52;0.52;;;12.70;85.00;;;;;;5034396;28;20036;-67
2022/02/24 13:07:06;;;;;;;3.58;1.42;;;12.60;83.20;;;;;;5040043;28;20042;-66
2022/02/24 13:09:43;;;;;;;6.47;1.20;;;12.60;84.30;;;;;;5062168;28;20021;-68
2022/02/24 13:12:14;;;;;;;0.40;0.40;;;12.60;84.80;;;;;;5064528;28;20024;-68
2022/02/24 13:14:43;;;;;;;0.55;0.50;;;12.60;83.30;;;;;;5051500;28;20483;-68
2022/02/24 13:17:10;;;;;;;2.55;1.00;;;12.60;82.00;;;;;;5063838;28;20049;-67
2022/02/24 13:19:38;;;;;;;2.35;1.42;;;12.60;81.40;;;;;;5073856;28;20120;-67
2022/02/24 13:22:06;;;;;;;0.80;0.55;;;12.50;83.00;;;;;;5058684;28;20024;-68
2022/02/24 13:24:38;;;;;;;0.80;0.80;;;12.50;80.50;;;;;;5045976;28;20077;-67
2022/02/24 13:27:05;;;;;;;4.78;1.17;;;12.50;79.40;;;;;;5059960;28;20028;-67
2022/02/24 13:29:31;;;;;;;2.65;0.77;;;12.40;79.30;;;;;;5056687;28;20481;-66
2022/02/24 13:32:18;;;;;;;1.50;1.13;;;12.40;80.50;;;;;;5052401;28;20036;-68
2022/02/24 13:34:53;;;;;;;1.33;0.98;;;12.30;80.80;;;;;;5064620;28;20047;-68
2022/02/24 13:37:29;;;;;;;0.70;0.47;;;12.30;79.60;;;;;;5056573;28;20041;-68
2022/02/24 13:40:03;;;;;;;4.20;1.00;;;12.30;78.20;;;;;;5063304;28;20024;-67
2022/02/24 13:42:28;;;;;;;2.67;1.05;;;12.30;76.90;;;;;;5060384;28;20731;-67
2022/02/24 13:44:54;;;;;;;1.90;1.27;;;12.30;77.60;;;;;;5069423;28;20498;-68
2022/02/24 13:50:44;;;;;;;5.10;0.77;;;12.30;77.80;;;;;;5076594;22;20516;-66
2022/02/24 13:53:15;;;;;;;1.70;0.85;;;12.30;78.60;;;;;;5018127;28;20120;-66
2022/02/24 13:55:57;;;;;;;0.35;0.35;;;12.30;79.00;;;;;;5014622;28;20083;-66
2022/02/24 13:58:24;;;;;;;1.65;1.15;;;12.20;79.40;;;;;;5035352;28;20064;-66
2022/02/24 14:00:55;;;;;;;0.60;0.60;;;12.20;79.80;;;;;;5053274;28;20028;-67
2022/02/24 14:03:29;;;;;;;4.97;1.17;;;12.20;79.80;;;;;;5031643;28;20035;-66
2022/02/24 14:06:13;;;;;;;2.03;0.70;;;12.30;81.00;;;;;;5031530;28;20029;-67
2022/02/24 14:08:41;;;;;;;4.07;0.55;;;12.20;80.00;;;;;;5033085;28;20033;-65
2022/02/24 14:11:19;;;;;;;0.90;0.70;;;12.20;80.20;;;;;;5033029;28;20067;-65
2022/02/24 14:13:45;;;;;;;0.35;0.35;;;12.20;79.40;;;;;;5015868;28;20033;-66
2022/02/24 14:16:12;;;;;;;4.47;1.60;;;12.20;79.70;;;;;;5015110;28;20160;-66
2022/02/24 14:18:40;;;;;;;0.52;0.52;;;12.20;80.10;;;;;;5047497;28;20036;-66
2022/02/24 14:21:06;;;;;;;1.23;0.95;;;12.20;80.00;;;;;;5053942;28;20032;-65
2022/02/24 14:23:33;;;;;;;1.48;0.80;;;12.10;79.60;;;;;;5073154;28;20567;-67
2022/02/24 14:25:59;;;;;;;2.15;0.80;;;12.10;79.60;;;;;;5073180;28;20062;-66
2022/02/24 14:28:26;;;;;;;1.33;0.82;;;12.10;80.70;;;;;;5054411;28;20048;-66
2022/02/24 14:30:52;;;;;;;0.70;0.57;;;12.10;80.30;;;;;;5072347;28;20028;-67
2022/02/24 14:33:19;;;;;;;6.72;1.55;;;12.10;79.40;;;;;;5036330;28;20033;-66
2022/02/24 14:35:45;;;;;;;0.32;0.32;;;12.10;78.70;;;;;;5035080;28;20116;-66
2022/02/24 14:38:10;;;;;;;0.80;0.80;;;12.10;79.80;;;;;;5025674;28;20038;-66
2022/02/24 14:40:36;;;;;;;2.95;1.20;;;12.10;79.90;;;;;;5051537;28;20029;-66
2022/02/24 14:43:06;;;;;;;2.20;0.65;;;12.00;79.10;;;;;;5036353;28;20030;-66
2022/02/24 14:45:33;;;;;;;1.55;0.90;;;12.00;78.80;;;;;;5012364;28;20040;-66
2022/02/24 14:48:00;;;;;;;3.05;1.13;;;12.00;78.70;;;;;;5017750;28;20041;-66
2022/02/24 14:50:26;;;;;;;1.63;0.55;;;12.00;78.80;;;;;;5032551;28;20041;-66
2022/02/24 14:52:52;;;;;;;0.57;0.47;;;12.00;78.70;;;;;;5031515;28;20017;-66
2022/02/24 14:55:18;;;;;;;1.85;0.88;;;12.00;80.20;;;;;;5031601;28;20022;-66
2022/02/24 14:57:43;;;;;;;0.65;0.65;;;12.00;79.20;;;;;;5031781;28;20029;-66
2022/02/24 15:00:10;;;;;;;0.52;0.52;;;12.00;79.80;;;;;;5031728;28;20075;-67
2022/02/24 15:02:36;;;;;;;4.75;1.30;;;11.90;79.00;;;;;;5030946;28;20041;-67
2022/02/24 15:05:02;;;;;;;0.25;0.25;;;11.90;80.00;;;;;;5031800;28;20029;-66
2022/02/24 15:07:27;;;;;;;5.63;1.38;;;11.90;79.90;;;;;;5014239;28;20026;-66
2022/02/24 15:09:53;;;;;;;1.27;1.10;;;11.90;79.90;;;;;;5031880;28;20584;-66
2022/02/24 15:12:19;;;;;;;2.63;0.82;;;11.90;79.50;;;;;;5023681;28;20017;-66
2022/02/24 15:14:45;;;;;;;1.30;1.13;;;11.90;79.00;;;;;;5025048;28;20029;-66
2022/02/24 15:17:11;;;;;;;5.60;0.90;;;11.90;80.20;;;;;;5030945;28;20551;-66
2022/02/24 15:19:39;;;;;;;3.65;0.63;;;11.80;80.60;;;;;;5027177;28;20022;-66
2022/02/24 15:22:06;;;;;;;6.95;1.90;;;11.80;80.80;;;;;;5013145;28;20466;-66
2022/02/24 15:37:59;;;;;;;8.98;1.08;;;11.80;81.60;;;;;;4993563;28;20042;-66
2022/02/24 15:40:25;;;;;;;0.50;0.50;;;11.70;82.90;;;;;;4989480;28;20402;-65
2022/02/24 15:42:52;;;;;;;0.77;0.75;;;11.60;82.60;;;;;;4974525;28;20062;-64
2022/02/24 15:45:18;;;;;;;1.85;0.73;;;11.50;81.90;;;;;;4970414;28;20022;-64
2022/02/24 15:57:55;;;;;;;2.17;0.63;;;11.50;81.90;;;;;;4965919;28;20421;-65
2022/02/24 16:00:21;;;;;;;0.85;0.43;;;11.50;82.90;;;;;;4982446;28;20069;-65
2022/02/24 16:02:47;;;;;;;0.60;0.60;;;11.50;83.50;;;;;;4970679;28;20518;-65
2022/02/24 16:05:13;;;;;;;0.80;0.80;;;11.50;83.30;;;;;;4967709;28;20375;-64
2022/02/24 16:07:39;;;;;;;2.83;0.52;;;11.50;84.20;;;;;;4971267;28;20061;-64
2022/02/24 16:10:06;;;;;;;0.63;0.63;;;11.50;83.70;;;;;;4987043;28;20460;-64
2022/02/24 16:12:32;;;;;;;5.65;0.80;;;11.50;84.60;;;;;;4988485;28;20022;-64
2022/02/24 16:14:57;;;;;;;2.03;1.85;;;11.40;85.00;;;;;;4988899;28;20046;-64
2022/02/24 16:17:23;;;;;;;2.10;0.80;;;11.40;85.60;;;;;;4972001;28;20549;-64
2022/02/24 16:19:50;;;;;;;0.30;0.30;;;11.40;85.80;;;;;;4971219;28;20033;-64
2022/02/24 16:22:16;;;;;;;0.55;0.40;;;11.40;85.20;;;;;;5014630;28;20046;-64
2022/02/24 16:24:42;;;;;;;0.93;0.50;;;11.40;85.30;;;;;;5012569;28;20053;-64
2022/02/24 16:27:09;;;;;;;4.20;0.80;;;11.40;85.60;;;;;;4995385;28;20083;-64
2022/02/24 16:29:35;;;;;;;2.78;0.88;;;11.30;85.20;;;;;;5012893;28;20109;-64
2022/02/24 16:32:00;;;;;;;2.60;1.13;;;11.40;85.90;;;;;;4994459;28;20112;-64
2022/02/24 16:34:27;;;;;;;0.30;0.30;;;11.40;86.40;;;;;;4994198;28;20447;-64
2022/02/24 16:36:53;;;;;;;2.05;1.13;;;11.30;87.00;;;;;;5010957;28;20038;-64
2022/02/24 16:39:19;;;;;;;0.47;0.47;;;11.30;86.80;;;;;;5011472;28;20018;-64
2022/02/24 16:41:44;;;;;;;0.95;0.82;;;11.30;87.00;;;;;;5010022;28;20540;-64
2022/02/24 16:44:13;;;;;;;2.95;1.40;;;11.30;87.50;;;;;;5010220;28;20101;-64